Nett Lake, MN

3:26 AM CST on February 12, 2016 (GMT -0600)
Orr Regional

Weather History for KORB - February, 2012

Change the Weather History Date:

Monday, February 6, 2012

  Actual Average Record
Temperature  
Mean Temperature 22 °F -  
Max Temperature 28 °F 21 °F 44 °F (2002)
Min Temperature 15 °F 2 °F -29 °F (2007)
Degree Days  
Heating Degree Days 42    
Moisture  
Dew Point 19 °F    
Average Humidity 81    
Maximum Humidity 93    
Minimum Humidity 68    
Precipitation  
Precipitation 0.00 in - - ()
Sea Level Pressure  
Sea Level Pressure 30.06 in    
Wind  
Wind Speed 3 mph (NW)    
Max Wind Speed 8 mph    
Max Gust Speed -    
Visibility 9 miles    
Events      
Averages and records for this station are not official NWS values.
T = Trace of Precipitation, MM = Missing Value Source: NWS Daily Summary

Daily Weather History Graph

Daily Weather History Graph

Search for Another Location

Airport or City:

Trip Planner

Search our weather history database for the weather conditions in past years. The results will help you decide how hot, cold, wet, or windy it might be!

Date:

Astronomy

Feb. 06, 2012 Rise Set
Actual Time 7:32 AM CST 5:18 PM CST
Civil Twilight 7:00 AM CST 5:51 PM CST
Nautical Twilight 6:23 AM CST 6:28 PM CST
Astronomical Twilight 5:46 AM CST 7:04 PM CST
Moon 4:22 PM CST (2/6) 6:27 AM CST (2/6)
Length of Visible Light 10h 51m
Length of Day
9h 45m
Waxing Gibbous, 98% of the Moon is Illuminated
Feb 6
Waxing Gibbous
Feb 7
Full
Feb 14
Last Quarter
Feb 21
New
Feb 29
First Quarter

Hourly Weather History & Observations

Time (CST) Temp. Windchill Dew Point Humidity Pressure Visibility Wind Dir Wind Speed Gust Speed Precip Events Conditions
12:15 AM 26.6 °F - 19.4 °F 74% 29.95 in 10.0 mi North - - N/A   Clear
12:34 AM 26.6 °F - 19.4 °F 74% 29.94 in - Calm Calm - N/A   Clear
12:54 AM 24.8 °F - 19.4 °F 80% 29.94 in 10.0 mi Calm Calm - N/A   Clear
1:14 AM 24.8 °F - 21.2 °F 86% 29.94 in 10.0 mi Calm Calm - N/A   Clear
1:34 AM 24.8 °F - 21.2 °F 86% 29.94 in 10.0 mi Calm Calm - N/A   Clear
1:54 AM 24.8 °F - 21.2 °F 86% 29.94 in 10.0 mi Calm Calm - N/A   Clear
2:14 AM 23.0 °F - 19.4 °F 86% 29.94 in 10.0 mi Calm Calm - N/A   Clear
2:34 AM 24.8 °F - 21.2 °F 86% 29.94 in 10.0 mi Calm Calm - N/A   Clear
3:14 AM 24.8 °F - 21.2 °F 86% 29.93 in 10.0 mi Calm Calm - N/A   Clear
3:34 AM 24.8 °F 20.5 °F 21.2 °F 86% 29.92 in 10.0 mi WSW 3.5 mph - N/A   Clear
3:54 AM 24.8 °F - 21.2 °F 86% 29.92 in 10.0 mi Calm Calm - N/A   Clear
4:14 AM 21.2 °F - 19.4 °F 93% 29.92 in 10.0 mi Calm Calm - N/A   Clear
4:34 AM 21.2 °F 16.4 °F 19.4 °F 93% 29.93 in 10.0 mi West 3.5 mph - N/A   Clear
4:54 AM 23.0 °F 18.4 °F 21.2 °F 93% 29.92 in 10.0 mi West 3.5 mph - N/A   Clear
5:14 AM 21.2 °F 16.4 °F 19.4 °F 93% 29.92 in 10.0 mi West 3.5 mph - N/A   Clear
5:34 AM 21.2 °F 16.4 °F 19.4 °F 93% 29.92 in 7.0 mi West 3.5 mph - N/A   Clear
5:54 AM 21.2 °F 16.4 °F 19.4 °F 93% 29.92 in 7.0 mi WNW 3.5 mph - N/A   Clear
6:09 AM 21.2 °F 16.4 °F 19.4 °F 93% 29.92 in 7.0 mi WNW 3.5 mph - N/A   Clear
6:30 AM 21.2 °F 16.4 °F 19.4 °F 93% 29.93 in 7.0 mi WNW 3.5 mph - N/A   Clear
6:54 AM 21.2 °F 14.9 °F 19.4 °F 93% 29.93 in 7.0 mi WNW 4.6 mph - N/A   Scattered Clouds
7:14 AM 21.2 °F 13.6 °F 19.4 °F 93% 29.94 in 7.0 mi NW 5.8 mph - N/A   Scattered Clouds
7:34 AM 21.2 °F 16.4 °F 19.4 °F 93% 29.95 in 5.0 mi NW 3.5 mph - N/A   Clear
7:54 AM 21.2 °F 13.6 °F 19.4 °F 93% 29.96 in 5.0 mi NW 5.8 mph - N/A   Scattered Clouds
8:15 AM 21.2 °F 14.9 °F 19.4 °F 93% 29.97 in 5.0 mi NW 4.6 mph - N/A   Mostly Cloudy
8:34 AM 21.2 °F 16.4 °F 19.4 °F 93% 29.98 in 5.0 mi NW 3.5 mph - N/A   Overcast
8:54 AM 23.0 °F 15.8 °F 21.2 °F 93% 29.99 in 7.0 mi NW 5.8 mph - N/A   Overcast
9:15 AM 23.0 °F 15.8 °F 21.2 °F 93% 30.00 in 7.0 mi NW 5.8 mph - N/A   Overcast
9:35 AM 24.8 °F 19.1 °F 21.2 °F 86% 30.01 in 7.0 mi NW 4.6 mph - N/A   Overcast
9:55 AM 24.8 °F 19.1 °F 21.2 °F 86% 30.02 in 10.0 mi NW 4.6 mph - N/A   Overcast
10:15 AM 24.8 °F 17.9 °F 21.2 °F 86% 30.03 in 10.0 mi NW 5.8 mph - N/A   Overcast
10:34 AM 26.6 °F 22.6 °F 23.0 °F 86% 30.03 in 10.0 mi NW 3.5 mph - N/A   Overcast
10:54 AM 26.6 °F - 23.0 °F 86% 30.04 in 10.0 mi Calm Calm - N/A   Overcast
11:15 AM 26.6 °F 22.6 °F 23.0 °F 86% 30.05 in 10.0 mi North 3.5 mph - N/A   Overcast
11:34 AM 26.6 °F 22.6 °F 23.0 °F 86% 30.06 in 10.0 mi NNW 3.5 mph - N/A   Overcast
11:54 AM 28.4 °F 22.2 °F 23.0 °F 80% 30.06 in 10.0 mi NNW 5.8 mph - N/A   Overcast
12:14 PM 28.4 °F 24.6 °F 21.2 °F 74% 30.07 in 10.0 mi NNW 3.5 mph - N/A   Overcast
12:35 PM 28.4 °F 22.2 °F 21.2 °F 74% 30.08 in 10.0 mi NNW 5.8 mph - N/A   Overcast
12:54 PM 28.4 °F 24.6 °F 21.2 °F 74% 30.09 in 10.0 mi North 3.5 mph - N/A   Overcast
1:15 PM 28.4 °F 22.2 °F 21.2 °F 74% 30.09 in 10.0 mi NNW 5.8 mph - N/A   Overcast
1:35 PM 28.4 °F 20.4 °F 21.2 °F 74% 30.10 in 10.0 mi NW 8.1 mph - N/A   Overcast
1:54 PM 28.4 °F 23.3 °F 21.2 °F 74% 30.11 in 10.0 mi NW 4.6 mph - N/A   Overcast
2:14 PM 28.4 °F 24.6 °F 21.2 °F 74% 30.12 in 10.0 mi NW 3.5 mph - N/A   Overcast
2:34 PM 28.4 °F 23.3 °F 21.2 °F 74% 30.13 in 10.0 mi NNW 4.6 mph - N/A   Overcast
2:54 PM 28.4 °F 23.3 °F 21.2 °F 74% 30.14 in 10.0 mi NW 4.6 mph - N/A   Overcast
3:15 PM 28.4 °F 23.3 °F 21.2 °F 74% 30.15 in 10.0 mi NNW 4.6 mph - N/A   Overcast
3:35 PM 28.4 °F 23.3 °F 21.2 °F 74% 30.16 in 10.0 mi NW 4.6 mph - N/A   Overcast
3:54 PM 28.4 °F 23.3 °F 21.2 °F 74% 30.16 in 10.0 mi NW 4.6 mph - N/A   Overcast
4:14 PM 26.6 °F 21.2 °F 19.4 °F 74% 30.17 in 10.0 mi NW 4.6 mph - N/A   Overcast
4:35 PM 26.6 °F 20.0 °F 19.4 °F 74% 30.19 in 10.0 mi NW 5.8 mph - N/A   Overcast
4:54 PM 26.6 °F 20.0 °F 17.6 °F 69% 30.20 in 10.0 mi NW 5.8 mph - N/A   Overcast
5:14 PM 26.6 °F 20.0 °F 17.6 °F 69% 30.21 in 10.0 mi NNW 5.8 mph - N/A   Overcast
5:34 PM 24.8 °F - 17.6 °F 74% 30.22 in 10.0 mi Calm Calm - N/A   Overcast
5:54 PM 24.8 °F 20.5 °F 15.8 °F 69% 30.23 in 10.0 mi NNW 3.5 mph - N/A   Overcast
6:14 PM 24.8 °F 20.5 °F 15.8 °F 69% 30.24 in 10.0 mi North 3.5 mph - N/A   Overcast
6:34 PM 23.0 °F 14.7 °F 15.8 °F 74% 30.26 in 10.0 mi North 6.9 mph - N/A   Overcast
6:54 PM 21.2 °F 12.6 °F 12.2 °F 68% 30.27 in 10.0 mi NNW 6.9 mph - N/A   Overcast
7:14 PM 21.2 °F 14.9 °F 12.2 °F 68% 30.28 in 10.0 mi North 4.6 mph - N/A   Mostly Cloudy
7:34 PM 19.4 °F 14.3 °F 10.4 °F 68% 30.29 in 10.0 mi NNW 3.5 mph - N/A   Scattered Clouds
7:54 PM 17.6 °F 10.7 °F 10.4 °F 73% 30.30 in 10.0 mi North 4.6 mph - N/A   Clear
8:14 PM 17.6 °F 10.7 °F 8.6 °F 68% 30.31 in 10.0 mi North 4.6 mph - N/A   Clear
8:34 PM 15.8 °F 10.2 °F 8.6 °F 73% 30.32 in 10.0 mi North 3.5 mph - N/A   Clear
8:55 PM 15.8 °F - 8.6 °F 73% 30.33 in 10.0 mi Calm Calm - N/A   Clear
9:14 PM 14.0 °F - 6.8 °F 73% 30.34 in 10.0 mi Calm Calm - N/A   Clear
9:34 PM 14.0 °F 8.2 °F 6.8 °F 73% 30.35 in 10.0 mi NNW 3.5 mph - N/A   Clear
9:54 PM 12.2 °F - 6.8 °F 79% 30.36 in 10.0 mi Calm Calm - N/A   Clear
10:14 PM 12.2 °F - 6.8 °F 79% 30.37 in 10.0 mi Calm Calm - N/A   Clear
10:34 PM 12.2 °F - 6.8 °F 79% 30.38 in 10.0 mi Calm Calm - N/A   Clear
10:55 PM 10.4 °F - 5.0 °F 79% 30.39 in 10.0 mi Calm Calm - N/A   Clear
11:14 PM 10.4 °F - 5.0 °F 79% 30.40 in 10.0 mi Calm Calm - N/A   Clear
11:34 PM 8.6 °F - 3.2 °F 79% 30.41 in 10.0 mi Calm Calm - N/A   Clear
11:54 PM 8.6 °F - 1.4 °F 73% 30.42 in 10.0 mi Calm Calm - N/A   Clear